Monroe, NC

8:06 PM EST on December 22, 2014 (GMT -0500)
Rock Hill-York County-Bryant | Change Station
CLOSE
Current Station
Airport
Location: Rock Hill,
Elevation: 666 ft
Nearby Weather Stations

Elev 666 ft 34.99 °N, 81.06 °W | Updated 12 minutes ago

Fog
Fog
39 °F
Feels Like 37 °F
N
4
Wind Variable Wind from Variable

Today
High -- | Low -- °F
--% Chance of Precip.
Yesterday
High -- | Low -- °F
Precip. -- in
7:27 AM 5:15 PM
New Moon, 1% visible
Pressure 30.06 in
Visibility 1.8 miles
Clouds Overcast 400 ft
Windchill 37 °F
Dew Point 38 °F
Humidity 96%
Rainfall 0.17 in
Snow Depth Not available.
UV 0 out of 12
Pollen .30 out of 12
Air Quality Not available.
Flu Activity Not available.
METAR KUZA 230054Z AUTO VRB03KT 1 3/4SM -RA BR OVC004 04/03 A3005 RMK AO2 RAB22E34B50 SLP179 P0000 T00390033

More Conditions Fewer Conditions

Pressure 30.06 in
Visibility 1.8 miles
Clouds Overcast 400 ft
Windchill 37 °F
Dew Point 38 °F
Humidity 96%
Rainfall 0.17 in
Snow Depth Not available.
UV 0 out of 12
Pollen .30 out of 12
Air Quality Not available.
Flu Activity Not available.
METAR KUZA 230054Z AUTO VRB03KT 1 3/4SM -RA BR OVC004 04/03 A3005 RMK AO2 RAB22E34B50 SLP179 P0000 T00390033

More Conditions Fewer Conditions

10-Day Weather Forecast

Almanac

Astronomy

Dec. 22, 2014 Rise Set
Actual Time
Civil Twilight
Nautical Twilight
Astronomical Twilight
Moon
Length of Visible Light
Length of Day
Tomorrow will be .
, % of the Moon is Illuminated

Today's Extremes

State Highs State Lows

Community

WunderPhotos

Upload Photos

1,779,742 photos uploaded!

WunderBlogs® & News

Nearby

Air Quality

  Air Quality AQ Index Pollutant
Not available.

Snow Depth

Station Depth Elevation

Earthquake Activity

City Distance Mag. Time & Date
Minimum magnitude displayed is 2.5.

Coastal Water Temperatures

Place Temperature

Nearby Weather Stations